sensor_id;sensor_type;location;lat;lon;timestamp;temperature;humidity
36132;DHT22;22185;48.738;9.324;2022-09-09T00:03:44;14.30;99.90
36132;DHT22;22185;48.738;9.324;2022-09-09T00:07:50;14.40;99.90
36132;DHT22;22185;48.738;9.324;2022-09-09T00:14:55;14.40;99.90
36132;DHT22;22185;48.738;9.324;2022-09-09T00:16:37;14.50;99.90
36132;DHT22;22185;48.738;9.324;2022-09-09T00:20:48;14.30;99.90
36132;DHT22;22185;48.738;9.324;2022-09-09T00:23:14;14.30;99.90
36132;DHT22;22185;48.738;9.324;2022-09-09T00:25:15;14.40;99.90
36132;DHT22;22185;48.738;9.324;2022-09-09T00:29:45;14.40;99.90
36132;DHT22;22185;48.738;9.324;2022-09-09T00:31:48;14.40;99.90
36132;DHT22;22185;48.738;9.324;2022-09-09T00:33:50;14.30;99.90
36132;DHT22;22185;48.738;9.324;2022-09-09T00:35:54;14.40;99.90
36132;DHT22;22185;48.738;9.324;2022-09-09T00:38:00;14.40;99.90
36132;DHT22;22185;48.738;9.324;2022-09-09T00:40:05;14.40;99.90
36132;DHT22;22185;48.738;9.324;2022-09-09T00:50:58;14.50;99.90
36132;DHT22;22185;48.738;9.324;2022-09-09T00:59:34;14.60;99.90
36132;DHT22;22185;48.738;9.324;2022-09-09T01:01:39;14.60;99.90
36132;DHT22;22185;48.738;9.324;2022-09-09T01:03:49;14.60;99.90
36132;DHT22;22185;48.738;9.324;2022-09-09T01:05:57;14.60;99.90
36132;DHT22;22185;48.738;9.324;2022-09-09T01:08:02;14.70;99.90
36132;DHT22;22185;48.738;9.324;2022-09-09T01:10:11;14.60;99.90
36132;DHT22;22185;48.738;9.324;2022-09-09T01:16:41;14.60;99.90
36132;DHT22;22185;48.738;9.324;2022-09-09T01:18:44;14.60;99.90
36132;DHT22;22185;48.738;9.324;2022-09-09T01:20:55;14.40;99.90
36132;DHT22;22185;48.738;9.324;2022-09-09T01:27:19;14.40;99.90
36132;DHT22;22185;48.738;9.324;2022-09-09T01:29:22;14.40;99.90
36132;DHT22;22185;48.738;9.324;2022-09-09T01:31:41;14.30;99.90
36132;DHT22;22185;48.738;9.324;2022-09-09T01:33:43;14.30;99.90
36132;DHT22;22185;48.738;9.324;2022-09-09T01:37:46;14.30;99.90
36132;DHT22;22185;48.738;9.324;2022-09-09T01:39:48;14.30;99.90
36132;DHT22;22185;48.738;9.324;2022-09-09T01:41:49;14.30;99.90
36132;DHT22;22185;48.738;9.324;2022-09-09T01:43:52;14.30;99.90
36132;DHT22;22185;48.738;9.324;2022-09-09T01:45:56;14.30;99.90
36132;DHT22;22185;48.738;9.324;2022-09-09T01:47:59;14.30;99.90
36132;DHT22;22185;48.738;9.324;2022-09-09T01:50:01;14.30;99.90
36132;DHT22;22185;48.738;9.324;2022-09-09T01:52:04;14.10;99.90
36132;DHT22;22185;48.738;9.324;2022-09-09T01:54:06;14.00;99.90
36132;DHT22;22185;48.738;9.324;2022-09-09T01:58:34;14.10;99.90
36132;DHT22;22185;48.738;9.324;2022-09-09T02:00:41;14.20;99.90
36132;DHT22;22185;48.738;9.324;2022-09-09T02:04:55;14.10;99.90
36132;DHT22;22185;48.738;9.324;2022-09-09T02:06:58;14.10;99.90
36132;DHT22;22185;48.738;9.324;2022-09-09T02:09:02;14.10;99.90
36132;DHT22;22185;48.738;9.324;2022-09-09T02:11:12;14.10;99.90
36132;DHT22;22185;48.738;9.324;2022-09-09T02:13:14;14.10;99.90
36132;DHT22;22185;48.738;9.324;2022-09-09T02:15:20;14.10;99.90
36132;DHT22;22185;48.738;9.324;2022-09-09T02:17:27;14.10;99.90
36132;DHT22;22185;48.738;9.324;2022-09-09T02:19:34;14.10;99.90
36132;DHT22;22185;48.738;9.324;2022-09-09T02:21:37;14.10;99.90
36132;DHT22;22185;48.738;9.324;2022-09-09T02:23:39;14.00;99.90
36132;DHT22;22185;48.738;9.324;2022-09-09T02:25:42;13.90;99.90
36132;DHT22;22185;48.738;9.324;2022-09-09T02:27:45;13.90;99.90
36132;DHT22;22185;48.738;9.324;2022-09-09T02:29:48;14.00;99.90
36132;DHT22;22185;48.738;9.324;2022-09-09T02:31:51;14.00;99.90
36132;DHT22;22185;48.738;9.324;2022-09-09T02:33:57;13.90;99.90
36132;DHT22;22185;48.738;9.324;2022-09-09T02:36:00;13.90;99.90
36132;DHT22;22185;48.738;9.324;2022-09-09T02:38:06;14.00;99.90
36132;DHT22;22185;48.738;9.324;2022-09-09T02:40:10;14.00;99.90
36132;DHT22;22185;48.738;9.324;2022-09-09T02:42:12;13.90;99.90
36132;DHT22;22185;48.738;9.324;2022-09-09T02:44:17;13.90;99.90
36132;DHT22;22185;48.738;9.324;2022-09-09T02:48:36;13.80;99.90
36132;DHT22;22185;48.738;9.324;2022-09-09T02:50:45;13.80;99.90
36132;DHT22;22185;48.738;9.324;2022-09-09T02:55:04;13.70;99.90
36132;DHT22;22185;48.738;9.324;2022-09-09T02:59:11;13.70;99.90
36132;DHT22;22185;48.738;9.324;2022-09-09T03:01:14;13.60;99.90
36132;DHT22;22185;48.738;9.324;2022-09-09T03:03:16;13.50;99.90
36132;DHT22;22185;48.738;9.324;2022-09-09T03:05:18;13.50;99.90
36132;DHT22;22185;48.738;9.324;2022-09-09T03:07:20;13.40;99.90
36132;DHT22;22185;48.738;9.324;2022-09-09T03:09:22;13.40;99.90
36132;DHT22;22185;48.738;9.324;2022-09-09T03:11:24;13.40;99.90
36132;DHT22;22185;48.738;9.324;2022-09-09T03:13:25;13.50;99.90
36132;DHT22;22185;48.738;9.324;2022-09-09T03:15:27;13.60;99.90
36132;DHT22;22185;48.738;9.324;2022-09-09T03:17:31;13.70;99.90
36132;DHT22;22185;48.738;9.324;2022-09-09T03:19:33;13.60;99.90
36132;DHT22;22185;48.738;9.324;2022-09-09T03:21:36;13.70;99.90
36132;DHT22;22185;48.738;9.324;2022-09-09T03:23:38;13.70;99.90
36132;DHT22;22185;48.738;9.324;2022-09-09T03:25:45;13.70;99.90
36132;DHT22;22185;48.738;9.324;2022-09-09T03:27:47;13.70;99.90
36132;DHT22;22185;48.738;9.324;2022-09-09T03:29:49;13.70;99.90
36132;DHT22;22185;48.738;9.324;2022-09-09T03:31:52;13.70;99.90
36132;DHT22;22185;48.738;9.324;2022-09-09T03:33:54;13.80;99.90
36132;DHT22;22185;48.738;9.324;2022-09-09T03:35:55;13.80;99.90
36132;DHT22;22185;48.738;9.324;2022-09-09T03:37:57;13.90;99.90
36132;DHT22;22185;48.738;9.324;2022-09-09T03:40:02;13.90;99.90
36132;DHT22;22185;48.738;9.324;2022-09-09T03:42:04;13.90;99.90
36132;DHT22;22185;48.738;9.324;2022-09-09T03:44:07;13.90;99.90
36132;DHT22;22185;48.738;9.324;2022-09-09T03:46:08;13.90;99.90
36132;DHT22;22185;48.738;9.324;2022-09-09T03:48:10;13.90;99.90
36132;DHT22;22185;48.738;9.324;2022-09-09T03:50:13;13.90;99.90
36132;DHT22;22185;48.738;9.324;2022-09-09T03:52:15;13.90;99.90
36132;DHT22;22185;48.738;9.324;2022-09-09T03:54:23;13.80;99.90
36132;DHT22;22185;48.738;9.324;2022-09-09T03:56:25;13.90;99.90
36132;DHT22;22185;48.738;9.324;2022-09-09T03:58:27;13.90;99.90
36132;DHT22;22185;48.738;9.324;2022-09-09T04:00:29;13.90;99.90
36132;DHT22;22185;48.738;9.324;2022-09-09T04:02:31;13.90;99.90
36132;DHT22;22185;48.738;9.324;2022-09-09T04:04:33;13.90;99.90
36132;DHT22;22185;48.738;9.324;2022-09-09T04:06:35;13.90;99.90
36132;DHT22;22185;48.738;9.324;2022-09-09T04:08:36;14.00;99.90
36132;DHT22;22185;48.738;9.324;2022-09-09T04:10:39;13.90;99.90
36132;DHT22;22185;48.738;9.324;2022-09-09T04:12:41;13.90;99.90
36132;DHT22;22185;48.738;9.324;2022-09-09T04:14:48;13.80;99.90
36132;DHT22;22185;48.738;9.324;2022-09-09T04:16:49;13.90;99.90
36132;DHT22;22185;48.738;9.324;2022-09-09T04:18:51;13.90;99.90
36132;DHT22;22185;48.738;9.324;2022-09-09T04:20:54;13.90;99.90
36132;DHT22;22185;48.738;9.324;2022-09-09T04:22:58;14.00;99.90
36132;DHT22;22185;48.738;9.324;2022-09-09T04:25:00;14.00;99.90
36132;DHT22;22185;48.738;9.324;2022-09-09T04:27:01;13.90;99.90
36132;DHT22;22185;48.738;9.324;2022-09-09T04:29:03;13.90;99.90
36132;DHT22;22185;48.738;9.324;2022-09-09T04:31:10;13.90;99.90
36132;DHT22;22185;48.738;9.324;2022-09-09T04:33:13;13.90;99.90
36132;DHT22;22185;48.738;9.324;2022-09-09T04:35:15;13.90;99.90
36132;DHT22;22185;48.738;9.324;2022-09-09T04:37:17;13.90;99.90
36132;DHT22;22185;48.738;9.324;2022-09-09T04:39:18;13.90;99.90
36132;DHT22;22185;48.738;9.324;2022-09-09T04:41:21;13.90;99.90
36132;DHT22;22185;48.738;9.324;2022-09-09T04:43:22;14.00;99.90
36132;DHT22;22185;48.738;9.324;2022-09-09T04:45:27;14.00;99.90
36132;DHT22;22185;48.738;9.324;2022-09-09T04:47:28;14.00;99.90
36132;DHT22;22185;48.738;9.324;2022-09-09T04:49:30;14.00;99.90
36132;DHT22;22185;48.738;9.324;2022-09-09T04:51:32;14.10;99.90
36132;DHT22;22185;48.738;9.324;2022-09-09T04:53:34;14.10;99.90
36132;DHT22;22185;48.738;9.324;2022-09-09T04:55:36;14.20;99.90
36132;DHT22;22185;48.738;9.324;2022-09-09T04:57:37;14.20;99.90
36132;DHT22;22185;48.738;9.324;2022-09-09T04:59:39;14.20;99.90
36132;DHT22;22185;48.738;9.324;2022-09-09T05:01:41;14.20;99.90
36132;DHT22;22185;48.738;9.324;2022-09-09T05:03:42;14.20;99.90
36132;DHT22;22185;48.738;9.324;2022-09-09T05:05:46;14.20;99.90
36132;DHT22;22185;48.738;9.324;2022-09-09T05:07:48;14.10;99.90
36132;DHT22;22185;48.738;9.324;2022-09-09T05:09:50;14.10;99.90
36132;DHT22;22185;48.738;9.324;2022-09-09T05:11:52;14.10;99.90
36132;DHT22;22185;48.738;9.324;2022-09-09T05:13:54;14.00;99.90
36132;DHT22;22185;48.738;9.324;2022-09-09T05:15:56;14.00;99.90
36132;DHT22;22185;48.738;9.324;2022-09-09T05:17:58;14.00;99.90
36132;DHT22;22185;48.738;9.324;2022-09-09T05:20:00;14.00;99.90
36132;DHT22;22185;48.738;9.324;2022-09-09T05:22:10;14.00;99.90
36132;DHT22;22185;48.738;9.324;2022-09-09T05:24:13;13.90;99.90
36132;DHT22;22185;48.738;9.324;2022-09-09T05:26:16;13.90;99.90
36132;DHT22;22185;48.738;9.324;2022-09-09T05:28:18;14.00;99.90
36132;DHT22;22185;48.738;9.324;2022-09-09T05:30:20;14.00;99.90
36132;DHT22;22185;48.738;9.324;2022-09-09T05:32:23;14.10;99.90
36132;DHT22;22185;48.738;9.324;2022-09-09T05:34:25;14.10;99.90
36132;DHT22;22185;48.738;9.324;2022-09-09T05:36:27;14.20;99.90
36132;DHT22;22185;48.738;9.324;2022-09-09T05:38:29;14.20;99.90
36132;DHT22;22185;48.738;9.324;2022-09-09T05:40:31;14.30;99.90
36132;DHT22;22185;48.738;9.324;2022-09-09T05:42:32;14.40;99.90
36132;DHT22;22185;48.738;9.324;2022-09-09T05:44:34;14.50;99.90
36132;DHT22;22185;48.738;9.324;2022-09-09T05:46:35;14.60;99.90
36132;DHT22;22185;48.738;9.324;2022-09-09T05:48:38;14.50;99.90
36132;DHT22;22185;48.738;9.324;2022-09-09T05:50:40;14.50;99.90
36132;DHT22;22185;48.738;9.324;2022-09-09T05:52:42;14.60;99.90
36132;DHT22;22185;48.738;9.324;2022-09-09T05:54:45;14.70;99.90
36132;DHT22;22185;48.738;9.324;2022-09-09T05:56:47;14.70;99.90
36132;DHT22;22185;48.738;9.324;2022-09-09T05:58:52;14.80;99.90
36132;DHT22;22185;48.738;9.324;2022-09-09T06:01:05;14.80;99.90
36132;DHT22;22185;48.738;9.324;2022-09-09T06:03:09;14.90;99.90
36132;DHT22;22185;48.738;9.324;2022-09-09T06:05:11;14.90;99.90
36132;DHT22;22185;48.738;9.324;2022-09-09T06:07:14;15.00;99.90
36132;DHT22;22185;48.738;9.324;2022-09-09T06:09:16;15.00;99.90
36132;DHT22;22185;48.738;9.324;2022-09-09T06:11:18;15.10;99.90
36132;DHT22;22185;48.738;9.324;2022-09-09T06:13:23;15.10;99.90
36132;DHT22;22185;48.738;9.324;2022-09-09T06:15:25;15.20;99.90
36132;DHT22;22185;48.738;9.324;2022-09-09T06:17:28;15.20;99.90
36132;DHT22;22185;48.738;9.324;2022-09-09T06:19:32;15.20;99.90
36132;DHT22;22185;48.738;9.324;2022-09-09T06:21:34;15.30;99.90
36132;DHT22;22185;48.738;9.324;2022-09-09T06:23:39;15.30;99.90
36132;DHT22;22185;48.738;9.324;2022-09-09T06:25:41;15.40;99.90
36132;DHT22;22185;48.738;9.324;2022-09-09T06:27:47;15.40;99.90
36132;DHT22;22185;48.738;9.324;2022-09-09T06:29:49;15.50;99.90
36132;DHT22;22185;48.738;9.324;2022-09-09T06:31:51;15.60;99.90
36132;DHT22;22185;48.738;9.324;2022-09-09T06:33:53;15.60;99.90
36132;DHT22;22185;48.738;9.324;2022-09-09T06:35:56;15.60;99.90
36132;DHT22;22185;48.738;9.324;2022-09-09T06:38:00;15.70;99.90
36132;DHT22;22185;48.738;9.324;2022-09-09T06:40:02;15.70;99.90
36132;DHT22;22185;48.738;9.324;2022-09-09T06:42:07;15.70;99.90
36132;DHT22;22185;48.738;9.324;2022-09-09T06:44:10;15.80;99.90
36132;DHT22;22185;48.738;9.324;2022-09-09T06:46:14;15.80;99.90
36132;DHT22;22185;48.738;9.324;2022-09-09T06:48:16;15.90;99.90
36132;DHT22;22185;48.738;9.324;2022-09-09T06:50:18;15.90;99.90
36132;DHT22;22185;48.738;9.324;2022-09-09T06:52:21;16.00;99.90
36132;DHT22;22185;48.738;9.324;2022-09-09T06:54:22;16.10;99.90
36132;DHT22;22185;48.738;9.324;2022-09-09T06:56:27;16.10;99.90
36132;DHT22;22185;48.738;9.324;2022-09-09T06:58:29;16.20;99.90
36132;DHT22;22185;48.738;9.324;2022-09-09T07:00:31;16.30;99.90
36132;DHT22;22185;48.738;9.324;2022-09-09T07:02:34;16.40;99.90
36132;DHT22;22185;48.738;9.324;2022-09-09T07:04:40;16.40;99.90
36132;DHT22;22185;48.738;9.324;2022-09-09T07:06:43;16.40;99.90
36132;DHT22;22185;48.738;9.324;2022-09-09T07:08:48;16.50;99.90
36132;DHT22;22185;48.738;9.324;2022-09-09T07:11:04;16.50;99.90
36132;DHT22;22185;48.738;9.324;2022-09-09T07:13:13;16.60;99.90
36132;DHT22;22185;48.738;9.324;2022-09-09T07:15:17;16.60;99.90
36132;DHT22;22185;48.738;9.324;2022-09-09T07:17:22;16.70;99.90
36132;DHT22;22185;48.738;9.324;2022-09-09T07:19:24;16.80;99.90
36132;DHT22;22185;48.738;9.324;2022-09-09T07:21:26;16.80;99.90
36132;DHT22;22185;48.738;9.324;2022-09-09T07:23:29;16.90;99.90
36132;DHT22;22185;48.738;9.324;2022-09-09T07:25:36;16.70;99.90
36132;DHT22;22185;48.738;9.324;2022-09-09T07:27:38;16.80;99.90
36132;DHT22;22185;48.738;9.324;2022-09-09T07:29:39;16.80;99.90
36132;DHT22;22185;48.738;9.324;2022-09-09T07:31:41;16.90;99.90
36132;DHT22;22185;48.738;9.324;2022-09-09T07:33:44;16.90;99.90
36132;DHT22;22185;48.738;9.324;2022-09-09T07:35:46;17.00;99.90
36132;DHT22;22185;48.738;9.324;2022-09-09T07:37:47;17.00;99.90
36132;DHT22;22185;48.738;9.324;2022-09-09T07:39:51;17.00;99.90
36132;DHT22;22185;48.738;9.324;2022-09-09T07:41:53;17.20;99.90
36132;DHT22;22185;48.738;9.324;2022-09-09T07:43:58;17.20;99.90
36132;DHT22;22185;48.738;9.324;2022-09-09T07:46:00;17.20;99.90
36132;DHT22;22185;48.738;9.324;2022-09-09T07:48:08;17.30;99.90
36132;DHT22;22185;48.738;9.324;2022-09-09T07:50:12;17.20;99.90
36132;DHT22;22185;48.738;9.324;2022-09-09T07:52:14;17.20;99.90
36132;DHT22;22185;48.738;9.324;2022-09-09T07:54:20;17.20;99.90
36132;DHT22;22185;48.738;9.324;2022-09-09T07:56:25;17.20;99.90
36132;DHT22;22185;48.738;9.324;2022-09-09T07:58:27;17.20;99.90
36132;DHT22;22185;48.738;9.324;2022-09-09T08:00:42;17.10;99.90
36132;DHT22;22185;48.738;9.324;2022-09-09T08:02:45;17.10;99.90
36132;DHT22;22185;48.738;9.324;2022-09-09T08:04:48;17.10;99.90
36132;DHT22;22185;48.738;9.324;2022-09-09T08:06:51;17.10;99.90
36132;DHT22;22185;48.738;9.324;2022-09-09T08:08:54;17.20;99.90
36132;DHT22;22185;48.738;9.324;2022-09-09T08:11:14;17.20;99.90
36132;DHT22;22185;48.738;9.324;2022-09-09T08:13:16;17.20;99.90
36132;DHT22;22185;48.738;9.324;2022-09-09T08:15:19;17.40;99.90
36132;DHT22;22185;48.738;9.324;2022-09-09T08:17:22;17.50;99.90
36132;DHT22;22185;48.738;9.324;2022-09-09T08:19:26;17.70;99.90
36132;DHT22;22185;48.738;9.324;2022-09-09T08:21:35;17.80;99.90
36132;DHT22;22185;48.738;9.324;2022-09-09T08:23:39;17.70;99.90
36132;DHT22;22185;48.738;9.324;2022-09-09T08:25:41;17.70;99.90
36132;DHT22;22185;48.738;9.324;2022-09-09T08:27:42;17.70;99.90
36132;DHT22;22185;48.738;9.324;2022-09-09T08:29:44;17.80;99.90
36132;DHT22;22185;48.738;9.324;2022-09-09T08:31:48;17.90;99.90
36132;DHT22;22185;48.738;9.324;2022-09-09T08:33:57;18.00;99.90
36132;DHT22;22185;48.738;9.324;2022-09-09T08:36:00;18.10;99.90
36132;DHT22;22185;48.738;9.324;2022-09-09T08:38:02;18.00;99.90
36132;DHT22;22185;48.738;9.324;2022-09-09T08:40:13;18.10;99.90
36132;DHT22;22185;48.738;9.324;2022-09-09T08:51:15;18.90;99.90
36132;DHT22;22185;48.738;9.324;2022-09-09T08:53:20;19.10;99.90
36132;DHT22;22185;48.738;9.324;2022-09-09T08:57:25;19.40;99.90
36132;DHT22;22185;48.738;9.324;2022-09-09T08:59:28;19.60;99.90
36132;DHT22;22185;48.738;9.324;2022-09-09T09:03:56;19.90;99.90
36132;DHT22;22185;48.738;9.324;2022-09-09T09:06:00;20.10;99.90
36132;DHT22;22185;48.738;9.324;2022-09-09T09:08:06;20.10;99.90
36132;DHT22;22185;48.738;9.324;2022-09-09T09:12:40;20.00;99.90
36132;DHT22;22185;48.738;9.324;2022-09-09T09:14:42;20.10;99.90
36132;DHT22;22185;48.738;9.324;2022-09-09T09:17:09;20.20;99.90
36132;DHT22;22185;48.738;9.324;2022-09-09T09:19:08;20.40;99.90
36132;DHT22;22185;48.738;9.324;2022-09-09T09:23:20;20.50;99.90
36132;DHT22;22185;48.738;9.324;2022-09-09T09:25:26;20.70;99.90
36132;DHT22;22185;48.738;9.324;2022-09-09T09:29:34;21.00;99.90
36132;DHT22;22185;48.738;9.324;2022-09-09T09:31:56;21.00;99.90
36132;DHT22;22185;48.738;9.324;2022-09-09T09:34:00;21.30;99.90
36132;DHT22;22185;48.738;9.324;2022-09-09T09:36:02;21.70;99.90
36132;DHT22;22185;48.738;9.324;2022-09-09T09:38:21;21.60;99.90
36132;DHT22;22185;48.738;9.324;2022-09-09T09:40:53;21.70;99.90
36132;DHT22;22185;48.738;9.324;2022-09-09T09:42:59;21.30;99.90
36132;DHT22;22185;48.738;9.324;2022-09-09T09:45:14;20.80;99.90
36132;DHT22;22185;48.738;9.324;2022-09-09T09:47:20;20.00;99.90
36132;DHT22;22185;48.738;9.324;2022-09-09T09:49:22;19.60;99.90
36132;DHT22;22185;48.738;9.324;2022-09-09T09:51:24;19.20;99.90
36132;DHT22;22185;48.738;9.324;2022-09-09T09:53:41;19.40;99.90
36132;DHT22;22185;48.738;9.324;2022-09-09T09:55:46;19.20;99.90
36132;DHT22;22185;48.738;9.324;2022-09-09T09:57:51;19.30;99.90
36132;DHT22;22185;48.738;9.324;2022-09-09T10:00:27;19.60;99.90
36132;DHT22;22185;48.738;9.324;2022-09-09T10:02:22;19.70;99.90
36132;DHT22;22185;48.738;9.324;2022-09-09T10:04:28;19.70;99.90
36132;DHT22;22185;48.738;9.324;2022-09-09T10:06:34;19.90;99.90
36132;DHT22;22185;48.738;9.324;2022-09-09T10:08:43;19.70;99.90
36132;DHT22;22185;48.738;9.324;2022-09-09T10:11:02;19.90;99.90
36132;DHT22;22185;48.738;9.324;2022-09-09T10:17:41;20.40;99.90
36132;DHT22;22185;48.738;9.324;2022-09-09T10:20:22;20.80;99.90
36132;DHT22;22185;48.738;9.324;2022-09-09T10:22:24;20.90;99.90
36132;DHT22;22185;48.738;9.324;2022-09-09T10:37:18;22.10;99.90
36132;DHT22;22185;48.738;9.324;2022-09-09T10:42:03;22.90;99.90
36132;DHT22;22185;48.738;9.324;2022-09-09T10:44:51;22.80;99.90
36132;DHT22;22185;48.738;9.324;2022-09-09T10:50:56;23.20;99.90
36132;DHT22;22185;48.738;9.324;2022-09-09T10:53:08;23.70;99.90
36132;DHT22;22185;48.738;9.324;2022-09-09T10:55:19;23.30;99.90
36132;DHT22;22185;48.738;9.324;2022-09-09T10:59:55;23.90;99.90
36132;DHT22;22185;48.738;9.324;2022-09-09T11:02:46;24.30;99.90
36132;DHT22;22185;48.738;9.324;2022-09-09T11:04:26;23.50;99.90
36132;DHT22;22185;48.738;9.324;2022-09-09T11:06:34;23.20;99.90
36132;DHT22;22185;48.738;9.324;2022-09-09T11:08:38;23.00;99.90
36132;DHT22;22185;48.738;9.324;2022-09-09T11:12:41;22.70;99.90
36132;DHT22;22185;48.738;9.324;2022-09-09T11:18:51;24.70;99.90
36132;DHT22;22185;48.738;9.324;2022-09-09T11:20:58;25.60;99.90
36132;DHT22;22185;48.738;9.324;2022-09-09T11:23:02;24.90;99.90
36132;DHT22;22185;48.738;9.324;2022-09-09T11:25:08;23.60;99.90
36132;DHT22;22185;48.738;9.324;2022-09-09T11:27:16;23.10;99.90
36132;DHT22;22185;48.738;9.324;2022-09-09T11:33:55;22.10;99.90
36132;DHT22;22185;48.738;9.324;2022-09-09T11:38:25;21.70;99.90
36132;DHT22;22185;48.738;9.324;2022-09-09T11:40:27;21.70;99.90
36132;DHT22;22185;48.738;9.324;2022-09-09T11:42:29;21.30;99.90
36132;DHT22;22185;48.738;9.324;2022-09-09T11:44:31;20.20;99.90
36132;DHT22;22185;48.738;9.324;2022-09-09T11:46:34;19.30;99.90
36132;DHT22;22185;48.738;9.324;2022-09-09T11:48:38;18.90;99.90
36132;DHT22;22185;48.738;9.324;2022-09-09T11:50:40;18.70;99.90
36132;DHT22;22185;48.738;9.324;2022-09-09T11:52:43;18.60;99.90
36132;DHT22;22185;48.738;9.324;2022-09-09T11:54:48;18.90;99.90
36132;DHT22;22185;48.738;9.324;2022-09-09T11:56:50;19.90;99.90
36132;DHT22;22185;48.738;9.324;2022-09-09T11:58:59;24.00;99.90
36132;DHT22;22185;48.738;9.324;2022-09-09T12:01:12;26.30;99.90
36132;DHT22;22185;48.738;9.324;2022-09-09T12:05:38;29.00;99.90
36132;DHT22;22185;48.738;9.324;2022-09-09T12:07:49;26.50;99.90
36132;DHT22;22185;48.738;9.324;2022-09-09T12:10:29;23.90;99.90
36132;DHT22;22185;48.738;9.324;2022-09-09T12:12:32;23.60;99.90
36132;DHT22;22185;48.738;9.324;2022-09-09T12:14:36;23.10;99.90
36132;DHT22;22185;48.738;9.324;2022-09-09T12:16:38;23.40;99.90
36132;DHT22;22185;48.738;9.324;2022-09-09T12:18:41;25.40;99.90
36132;DHT22;22185;48.738;9.324;2022-09-09T12:20:51;25.20;99.90
36132;DHT22;22185;48.738;9.324;2022-09-09T12:25:20;22.80;99.90
36132;DHT22;22185;48.738;9.324;2022-09-09T12:27:34;22.10;99.90
36132;DHT22;22185;48.738;9.324;2022-09-09T12:33:50;26.10;99.90
36132;DHT22;22185;48.738;9.324;2022-09-09T12:35:55;26.80;99.90
36132;DHT22;22185;48.738;9.324;2022-09-09T12:37:58;26.30;99.90
36132;DHT22;22185;48.738;9.324;2022-09-09T12:40:03;27.00;99.90
36132;DHT22;22185;48.738;9.324;2022-09-09T12:42:17;27.80;99.90
36132;DHT22;22185;48.738;9.324;2022-09-09T12:44:19;27.50;99.90
36132;DHT22;22185;48.738;9.324;2022-09-09T12:46:42;27.00;99.90
36132;DHT22;22185;48.738;9.324;2022-09-09T12:48:44;26.40;99.90
36132;DHT22;22185;48.738;9.324;2022-09-09T12:50:50;28.00;99.90
36132;DHT22;22185;48.738;9.324;2022-09-09T12:52:57;27.60;99.90
36132;DHT22;22185;48.738;9.324;2022-09-09T12:55:00;28.40;99.90
36132;DHT22;22185;48.738;9.324;2022-09-09T12:57:03;29.60;99.90
36132;DHT22;22185;48.738;9.324;2022-09-09T12:59:17;27.20;99.90
36132;DHT22;22185;48.738;9.324;2022-09-09T13:03:28;25.00;99.90
36132;DHT22;22185;48.738;9.324;2022-09-09T13:05:36;24.10;99.90
36132;DHT22;22185;48.738;9.324;2022-09-09T13:07:38;23.60;99.90
36132;DHT22;22185;48.738;9.324;2022-09-09T13:09:40;22.90;99.90
36132;DHT22;22185;48.738;9.324;2022-09-09T13:11:42;22.50;99.90
36132;DHT22;22185;48.738;9.324;2022-09-09T13:13:52;22.10;99.90
36132;DHT22;22185;48.738;9.324;2022-09-09T13:15:55;21.90;99.90
36132;DHT22;22185;48.738;9.324;2022-09-09T13:17:58;22.00;99.90
36132;DHT22;22185;48.738;9.324;2022-09-09T13:20:02;22.00;99.90
36132;DHT22;22185;48.738;9.324;2022-09-09T13:22:18;22.50;99.90
36132;DHT22;22185;48.738;9.324;2022-09-09T13:26:24;22.60;99.90
36132;DHT22;22185;48.738;9.324;2022-09-09T13:28:27;22.30;99.90
36132;DHT22;22185;48.738;9.324;2022-09-09T13:30:35;21.80;99.90
36132;DHT22;22185;48.738;9.324;2022-09-09T13:32:39;21.60;99.90
36132;DHT22;22185;48.738;9.324;2022-09-09T13:34:49;21.90;99.90
36132;DHT22;22185;48.738;9.324;2022-09-09T13:36:51;22.10;99.90
36132;DHT22;22185;48.738;9.324;2022-09-09T13:39:01;22.40;99.90
36132;DHT22;22185;48.738;9.324;2022-09-09T13:41:05;23.70;99.90
36132;DHT22;22185;48.738;9.324;2022-09-09T13:43:12;25.40;99.90
36132;DHT22;22185;48.738;9.324;2022-09-09T13:45:17;26.10;99.90
36132;DHT22;22185;48.738;9.324;2022-09-09T13:47:26;26.10;99.90
36132;DHT22;22185;48.738;9.324;2022-09-09T13:49:29;28.80;99.90
36132;DHT22;22185;48.738;9.324;2022-09-09T13:53:36;28.40;99.90
36132;DHT22;22185;48.738;9.324;2022-09-09T13:55:38;26.90;99.90
36132;DHT22;22185;48.738;9.324;2022-09-09T13:57:49;26.70;99.90
36132;DHT22;22185;48.738;9.324;2022-09-09T13:59:53;27.30;99.90
36132;DHT22;22185;48.738;9.324;2022-09-09T14:02:11;25.80;99.90
36132;DHT22;22185;48.738;9.324;2022-09-09T14:04:13;27.30;99.90
36132;DHT22;22185;48.738;9.324;2022-09-09T14:06:16;27.90;99.90
36132;DHT22;22185;48.738;9.324;2022-09-09T14:08:23;24.30;99.90
36132;DHT22;22185;48.738;9.324;2022-09-09T14:10:25;25.80;99.90
36132;DHT22;22185;48.738;9.324;2022-09-09T14:12:26;26.00;99.90
36132;DHT22;22185;48.738;9.324;2022-09-09T14:14:28;26.20;99.90
36132;DHT22;22185;48.738;9.324;2022-09-09T14:16:30;27.70;99.90
36132;DHT22;22185;48.738;9.324;2022-09-09T14:18:31;27.50;99.90
36132;DHT22;22185;48.738;9.324;2022-09-09T14:20:33;27.10;99.90
36132;DHT22;22185;48.738;9.324;2022-09-09T14:22:35;28.10;99.90
36132;DHT22;22185;48.738;9.324;2022-09-09T14:24:37;29.30;98.50
36132;DHT22;22185;48.738;9.324;2022-09-09T14:26:39;28.80;99.10
36132;DHT22;22185;48.738;9.324;2022-09-09T14:28:42;28.80;98.20
36132;DHT22;22185;48.738;9.324;2022-09-09T14:31:00;28.50;99.90
36132;DHT22;22185;48.738;9.324;2022-09-09T14:33:02;26.70;99.90
36132;DHT22;22185;48.738;9.324;2022-09-09T14:35:04;26.00;99.90
36132;DHT22;22185;48.738;9.324;2022-09-09T14:37:05;27.30;99.10
36132;DHT22;22185;48.738;9.324;2022-09-09T14:39:07;26.80;97.60
36132;DHT22;22185;48.738;9.324;2022-09-09T14:41:10;26.50;98.90
36132;DHT22;22185;48.738;9.324;2022-09-09T14:43:12;25.70;99.70
36132;DHT22;22185;48.738;9.324;2022-09-09T14:45:13;26.20;98.80
36132;DHT22;22185;48.738;9.324;2022-09-09T14:47:15;26.80;98.10
36132;DHT22;22185;48.738;9.324;2022-09-09T14:49:17;26.30;96.70
36132;DHT22;22185;48.738;9.324;2022-09-09T14:51:19;26.80;97.50
36132;DHT22;22185;48.738;9.324;2022-09-09T14:53:23;26.50;97.10
36132;DHT22;22185;48.738;9.324;2022-09-09T14:55:25;26.70;97.10
36132;DHT22;22185;48.738;9.324;2022-09-09T14:57:26;26.90;97.20
36132;DHT22;22185;48.738;9.324;2022-09-09T14:59:28;28.30;96.30
36132;DHT22;22185;48.738;9.324;2022-09-09T15:01:30;28.00;93.40
36132;DHT22;22185;48.738;9.324;2022-09-09T15:03:33;30.40;93.10
36132;DHT22;22185;48.738;9.324;2022-09-09T15:05:36;29.80;89.40
36132;DHT22;22185;48.738;9.324;2022-09-09T15:07:38;29.70;89.40
36132;DHT22;22185;48.738;9.324;2022-09-09T15:09:39;29.10;90.70
36132;DHT22;22185;48.738;9.324;2022-09-09T15:11:41;29.60;92.40
36132;DHT22;22185;48.738;9.324;2022-09-09T15:13:43;29.20;90.80